Impacts TAF Board
For situational awareness. Not to be used for flight planning purposes.
IDs:

KEGE - Eagle Cnty Rgnl, CO, US

Issued at 1738 UTC 21 May 2022
Updated at 2219 UTC 21 May 2022
Potential Impact None Slight Moderate High
Time2156Z 21/23Z 22/00Z 22/01Z 22/02Z 22/03Z 22/04Z 22/05Z 22/06Z 22/07Z 22/08Z 22/09Z 22/10Z 22/11Z>>
Type OBS PRVL PRVL PRVL PRVL PRVL PRVL PRVL PRVL PRVL PRVL PRVL PRVL PRVL
VIS 10 >6 >6 >6 >6 >6 >6 >6 >6 >6 >6 >6 >6 >6
CIG -- 100 100 100 100 100 100 100 100 100 100 100 100 100
Cover CLR BKN BKN BKN BKN BKN BKN BKN BKN BKN BKN BKN BKN BKN
FltCat VFR VFR VFR VFR VFR VFR VFR VFR VFR VFR VFR VFR VFR VFR
WX -- -- -- -- -- -- -- -- -- -- -- -- -- --
WDir 240 250 250 250 110 110 110 110 110 110 110 110 110 110
WSpd 7 8 8 8 6 6 6 6 6 6 6 6 6 6
WGst -- -- -- -- -- -- -- -- -- -- -- -- -- --
WSHgt -- -- -- -- -- -- -- -- -- -- -- -- -- --
WSDir -- -- -- -- -- -- -- -- -- -- -- -- -- --
WSSpd -- -- -- -- -- -- -- -- -- -- -- -- -- --
Raw TAF
KEGE 211738Z 2118/2218 VRB04KT P6SM SCT027
  FM212300 25008KT P6SM SCT050 BKN100
  FM220200 11006KT P6SM SCT060 BKN100
  FM221200 VRB02KT 4SM BR FEW002


Raw METAR
KEGE 212156Z 24007KT 10SM CLR 11/M09 A3015 RMK AO2 SLP115 T01111089
KEGE 212056Z 00000KT 10SM CLR 11/M06 A3016 RMK AO2 SLP118 T01061056 58009
KEGE 211956Z 04003KT 10SM FEW040 09/M03 A3017 RMK AO2 SLP121 T00891028

METAR Board
Radar Display
Forecast Discussion
For situational awareness. Not to be used for flight planning purposes.